createdAt,value
2018-06-11T00:01:39.861Z,99.90
2018-06-11T00:04:08.301Z,99.90
2018-06-11T00:06:36.743Z,99.90
2018-06-11T00:09:07.811Z,99.90
2018-06-11T00:11:36.607Z,99.90
2018-06-11T00:14:05.133Z,99.90
2018-06-11T00:16:33.939Z,99.90
2018-06-11T00:19:02.391Z,99.90
2018-06-11T00:21:30.844Z,99.90
2018-06-11T00:23:59.301Z,99.90
2018-06-11T00:26:27.750Z,99.90
2018-06-11T00:28:56.200Z,99.90
2018-06-11T00:31:24.766Z,99.90
2018-06-11T00:33:53.211Z,99.90
2018-06-11T00:36:21.663Z,99.90
2018-06-11T00:38:50.135Z,99.90
2018-06-11T00:41:18.602Z,99.90
2018-06-11T00:43:47.038Z,99.90
2018-06-11T00:46:15.521Z,99.90
2018-06-11T00:48:43.989Z,99.90
2018-06-11T00:51:12.437Z,99.90
2018-06-11T00:53:40.906Z,99.90
2018-06-11T00:56:10.163Z,99.90
2018-06-11T00:58:38.638Z,99.90
2018-06-11T01:01:07.550Z,99.90
2018-06-11T01:03:35.999Z,99.90
2018-06-11T01:06:04.489Z,99.90
2018-06-11T01:08:32.976Z,99.90
2018-06-11T01:11:01.450Z,99.90
2018-06-11T01:13:29.954Z,99.90
2018-06-11T01:15:58.484Z,99.90
2018-06-11T01:18:26.936Z,99.90
2018-06-11T01:20:55.372Z,99.90
2018-06-11T01:23:23.908Z,99.90
2018-06-11T01:25:52.355Z,99.90
2018-06-11T01:28:20.781Z,99.90
2018-06-11T01:30:49.242Z,99.90
2018-06-11T01:33:17.703Z,99.90
2018-06-11T01:35:46.145Z,99.90
2018-06-11T01:38:14.638Z,99.90
2018-06-11T01:40:43.091Z,99.90
2018-06-11T01:43:11.549Z,99.90
2018-06-11T01:45:40.031Z,99.90
2018-06-11T01:48:08.503Z,99.90
2018-06-11T01:50:36.945Z,99.90
2018-06-11T01:53:05.426Z,99.90
2018-06-11T01:55:33.882Z,99.90
2018-06-11T01:58:02.588Z,99.90
2018-06-11T02:00:31.054Z,99.90
2018-06-11T02:02:59.605Z,99.90
2018-06-11T02:05:28.136Z,99.90
2018-06-11T02:07:56.618Z,99.90
2018-06-11T02:10:25.080Z,99.90
2018-06-11T02:12:53.619Z,99.90
2018-06-11T02:15:22.199Z,99.90
2018-06-11T02:17:50.663Z,99.90
2018-06-11T02:20:19.112Z,99.90
2018-06-11T02:22:47.598Z,99.90
2018-06-11T02:25:16.028Z,99.90
2018-06-11T02:27:44.479Z,99.90
2018-06-11T02:32:41.161Z,99.90
2018-06-11T02:35:09.606Z,99.90
2018-06-11T02:37:38.073Z,99.90
2018-06-11T02:40:06.555Z,99.90
2018-06-11T02:42:35.024Z,99.90
2018-06-11T02:45:03.839Z,99.90
2018-06-11T02:47:32.312Z,99.90
2018-06-11T02:50:00.822Z,99.90
2018-06-11T02:54:58.041Z,99.90
2018-06-11T02:57:26.524Z,99.90
2018-06-11T02:59:55.032Z,99.90
2018-06-11T03:02:23.495Z,99.90
2018-06-11T03:04:51.943Z,99.90
2018-06-11T03:07:20.436Z,99.90
2018-06-11T03:09:48.878Z,99.90
2018-06-11T03:12:17.311Z,99.90
2018-06-11T03:14:45.790Z,99.90
2018-06-11T03:17:14.256Z,99.90
2018-06-11T03:19:42.707Z,99.90
2018-06-11T03:22:11.172Z,99.90
2018-06-11T03:24:39.715Z,99.90
2018-06-11T03:27:08.175Z,99.90
2018-06-11T03:29:36.641Z,99.90
2018-06-11T03:32:05.553Z,99.90
2018-06-11T03:34:34.070Z,99.90
2018-06-11T03:37:02.551Z,99.90
2018-06-11T03:39:31.014Z,99.90
2018-06-11T03:41:59.602Z,99.90
2018-06-11T03:44:28.084Z,99.90
2018-06-11T03:46:56.557Z,99.90
2018-06-11T03:49:24.999Z,99.90
2018-06-11T03:51:53.492Z,99.90
2018-06-11T03:56:50.113Z,99.90
2018-06-11T03:59:18.630Z,99.90
2018-06-11T04:01:47.217Z,99.90
2018-06-11T04:04:15.995Z,99.90
2018-06-11T04:06:44.487Z,99.90
2018-06-11T04:09:12.935Z,99.90
2018-06-11T04:11:41.381Z,99.90
2018-06-11T04:14:09.879Z,99.90
2018-06-11T04:16:38.336Z,99.90
2018-06-11T04:19:06.817Z,99.90
2018-06-11T04:21:35.415Z,99.90
2018-06-11T04:24:03.876Z,99.90
2018-06-11T04:26:32.325Z,99.90
2018-06-11T04:29:00.824Z,99.90
2018-06-11T04:31:29.289Z,99.90
2018-06-11T04:33:57.759Z,99.90
2018-06-11T04:36:26.243Z,99.90
2018-06-11T04:38:54.705Z,99.90
2018-06-11T04:41:23.149Z,99.90
2018-06-11T04:43:51.652Z,99.90
2018-06-11T04:46:20.106Z,99.90
2018-06-11T04:48:48.594Z,99.90
2018-06-11T04:51:17.201Z,99.90
2018-06-11T04:53:45.669Z,99.90
2018-06-11T04:56:14.127Z,99.90
2018-06-11T05:01:10.770Z,99.90
2018-06-11T05:03:39.248Z,99.90
2018-06-11T05:06:07.743Z,99.90
2018-06-11T05:08:36.194Z,99.90
2018-06-11T05:11:04.647Z,99.90
2018-06-11T05:13:33.108Z,99.90
2018-06-11T05:16:01.575Z,99.90
2018-06-11T05:18:30.028Z,99.90
2018-06-11T05:20:58.507Z,99.90
2018-06-11T05:23:27.052Z,99.10
2018-06-11T05:25:55.518Z,99.20
2018-06-11T05:28:24.266Z,99.90
2018-06-11T05:30:52.708Z,99.90
2018-06-11T05:33:21.166Z,99.90
2018-06-11T05:35:49.759Z,98.00
2018-06-11T05:38:18.354Z,96.80
2018-06-11T05:40:46.941Z,95.30
2018-06-11T05:43:15.443Z,95.80
2018-06-11T05:45:44.595Z,98.90
2018-06-11T05:50:41.250Z,96.70
2018-06-11T05:53:09.696Z,93.20
2018-06-11T05:55:38.167Z,89.00
2018-06-11T05:58:06.707Z,89.10
2018-06-11T06:00:35.177Z,86.90
2018-06-11T06:03:03.679Z,85.90
2018-06-11T06:05:32.162Z,82.10
2018-06-11T06:08:00.606Z,84.10
2018-06-11T06:10:29.076Z,79.20
2018-06-11T06:12:57.562Z,83.70
2018-06-11T06:15:26.027Z,87.00
2018-06-11T06:17:54.493Z,89.40
2018-06-11T06:20:22.990Z,92.10
2018-06-11T06:22:51.544Z,91.30
2018-06-11T06:25:19.995Z,88.90
2018-06-11T06:27:48.488Z,85.40
2018-06-11T06:30:16.982Z,82.50
2018-06-11T06:32:45.466Z,84.90
2018-06-11T06:35:13.945Z,86.10
2018-06-11T06:37:42.537Z,82.60
2018-06-11T06:40:11.076Z,83.80
2018-06-11T06:45:07.826Z,79.20
2018-06-11T06:47:36.292Z,77.60
2018-06-11T06:50:04.772Z,76.80
2018-06-11T06:52:33.231Z,77.30
2018-06-11T06:55:01.700Z,79.60
2018-06-11T06:57:30.210Z,78.50
2018-06-11T06:59:58.663Z,75.50
2018-06-11T07:02:27.123Z,81.10
2018-06-11T07:04:55.621Z,75.60
2018-06-11T07:07:24.100Z,75.60
2018-06-11T07:09:52.584Z,73.50
2018-06-11T07:12:21.058Z,71.90
2018-06-11T07:14:49.562Z,71.50
2018-06-11T07:17:18.019Z,79.30
2018-06-11T07:19:46.526Z,79.50
2018-06-11T07:22:15.057Z,79.40
2018-06-11T07:24:43.517Z,77.90
2018-06-11T07:27:12.109Z,79.40
2018-06-11T07:29:40.533Z,81.30
2018-06-11T07:32:09.005Z,82.30
2018-06-11T07:34:37.479Z,81.70
2018-06-11T07:37:06.118Z,81.50
2018-06-11T07:39:34.567Z,81.80
2018-06-11T07:42:03.061Z,77.80
2018-06-11T07:44:31.529Z,78.40
2018-06-11T07:47:00.041Z,78.10
2018-06-11T07:49:28.619Z,77.10
2018-06-11T07:51:57.080Z,77.80
2018-06-11T07:54:25.519Z,72.50
2018-06-11T07:56:54.000Z,71.10
2018-06-11T07:59:22.459Z,67.00
2018-06-11T08:01:50.911Z,63.60
2018-06-11T08:04:19.405Z,66.00
2018-06-11T08:06:47.848Z,64.00
2018-06-11T08:11:44.464Z,61.40
2018-06-11T08:14:12.919Z,61.70
2018-06-11T08:16:41.374Z,59.50
2018-06-11T08:19:09.841Z,60.10
2018-06-11T08:24:06.640Z,56.50
2018-06-11T08:26:35.132Z,57.80
2018-06-11T08:29:03.686Z,62.60
2018-06-11T08:31:32.166Z,64.20
2018-06-11T08:36:28.823Z,62.10
2018-06-11T08:38:57.383Z,58.90
2018-06-11T08:41:25.911Z,59.10
2018-06-11T08:43:54.398Z,57.60
2018-06-11T08:46:22.989Z,56.10
2018-06-11T08:48:51.480Z,54.10
2018-06-11T08:51:19.932Z,51.30
2018-06-11T08:53:48.385Z,49.00
2018-06-11T08:56:16.864Z,53.70
2018-06-11T08:58:45.407Z,51.00
2018-06-11T09:01:13.856Z,44.80
2018-06-11T09:03:42.358Z,47.30
2018-06-11T09:06:10.792Z,49.00
2018-06-11T09:08:39.246Z,53.60
2018-06-11T09:11:07.718Z,55.20
2018-06-11T09:13:37.697Z,51.60
2018-06-11T09:16:06.260Z,54.20
2018-06-11T09:18:34.759Z,51.80
2018-06-11T09:21:03.272Z,52.90
2018-06-11T09:23:31.788Z,48.60
2018-06-11T09:26:00.401Z,48.80
2018-06-11T09:28:28.857Z,49.10
2018-06-11T09:30:57.469Z,48.70
2018-06-11T09:33:25.960Z,47.60
2018-06-11T09:35:54.425Z,48.50
2018-06-11T09:38:22.883Z,48.80
2018-06-11T09:40:51.361Z,48.60
2018-06-11T09:43:19.824Z,50.50
2018-06-11T09:45:48.352Z,48.60
2018-06-11T09:48:16.844Z,47.20
2018-06-11T09:50:45.340Z,48.80
2018-06-11T09:53:13.796Z,47.50
2018-06-11T09:55:42.274Z,50.00
2018-06-11T09:58:10.733Z,48.30
2018-06-11T10:00:39.200Z,50.50
2018-06-11T10:03:07.784Z,51.00
2018-06-11T10:05:36.248Z,52.10
2018-06-11T10:08:04.716Z,50.40
2018-06-11T10:10:33.211Z,47.80
2018-06-11T10:13:01.798Z,50.10
2018-06-11T10:15:30.267Z,48.50
2018-06-11T10:17:58.777Z,45.40
2018-06-11T10:20:27.229Z,43.30
2018-06-11T10:22:55.663Z,43.40
2018-06-11T10:25:24.682Z,44.50
2018-06-11T10:27:53.216Z,42.50
2018-06-11T10:30:21.661Z,43.00
2018-06-11T10:32:50.165Z,41.40
2018-06-11T10:35:18.612Z,44.00
2018-06-11T10:37:47.251Z,39.10
2018-06-11T10:40:15.730Z,40.00
2018-06-11T10:42:44.347Z,40.30
2018-06-11T10:45:13.686Z,39.70
2018-06-11T10:47:42.162Z,42.70
2018-06-11T10:50:10.611Z,44.20
2018-06-11T10:52:40.034Z,41.60
2018-06-11T10:55:08.511Z,42.90
2018-06-11T10:57:36.969Z,38.80
2018-06-11T11:00:05.478Z,37.40
2018-06-11T11:02:33.953Z,37.30
2018-06-11T11:05:02.511Z,37.70
2018-06-11T11:07:30.998Z,40.10
2018-06-11T11:09:59.582Z,36.50
2018-06-11T11:12:28.122Z,36.30
2018-06-11T11:14:56.558Z,38.50
2018-06-11T11:17:25.052Z,34.30
2018-06-11T11:19:53.512Z,31.40
2018-06-11T11:22:22.009Z,35.10
2018-06-11T11:24:50.477Z,34.80
2018-06-11T11:27:18.934Z,33.90
2018-06-11T11:29:47.453Z,35.70
2018-06-11T11:32:15.903Z,35.00
2018-06-11T11:34:44.433Z,34.40
2018-06-11T11:37:12.889Z,39.20
2018-06-11T11:39:41.357Z,35.20
2018-06-11T11:42:09.829Z,36.00
2018-06-11T11:44:38.305Z,39.70
2018-06-11T11:47:06.774Z,39.80
2018-06-11T11:49:35.223Z,40.20
2018-06-11T11:52:03.804Z,35.40
2018-06-11T11:54:32.265Z,34.50
2018-06-11T11:57:00.711Z,36.50
2018-06-11T11:59:29.193Z,34.50
2018-06-11T12:01:57.731Z,37.70
2018-06-11T12:06:54.356Z,30.80
2018-06-11T12:09:22.859Z,30.80
2018-06-11T12:11:51.305Z,32.60
2018-06-11T12:14:19.757Z,33.60
2018-06-11T12:16:48.212Z,35.40
2018-06-11T12:19:16.654Z,36.20
2018-06-11T12:21:45.098Z,34.80
2018-06-11T12:24:13.608Z,33.00
2018-06-11T12:26:42.087Z,33.40
2018-06-11T12:29:10.556Z,34.40
2018-06-11T12:31:39.146Z,33.50
2018-06-11T12:34:07.585Z,34.20
2018-06-11T12:36:36.023Z,34.60
2018-06-11T12:39:06.600Z,31.00
2018-06-11T12:44:03.878Z,29.60
2018-06-11T12:46:32.378Z,30.80
2018-06-11T12:49:00.824Z,33.00
2018-06-11T12:51:29.301Z,30.30
2018-06-11T12:53:57.859Z,28.80
2018-06-11T12:56:26.296Z,28.40
2018-06-11T12:58:54.787Z,27.40
2018-06-11T13:01:23.263Z,27.70
2018-06-11T13:03:51.712Z,31.60
2018-06-11T13:06:20.157Z,32.30
2018-06-11T13:08:48.634Z,31.50
2018-06-11T13:11:17.098Z,32.00
2018-06-11T13:13:45.555Z,29.00
2018-06-11T13:16:14.024Z,27.70
2018-06-11T13:18:42.592Z,27.40
2018-06-11T13:21:11.039Z,27.40
2018-06-11T13:23:39.499Z,25.60
2018-06-11T13:26:08.100Z,26.70
2018-06-11T13:28:36.539Z,25.20
2018-06-11T13:31:05.040Z,24.70
2018-06-11T13:33:33.533Z,25.90
2018-06-11T13:36:01.992Z,25.90
2018-06-11T13:38:30.451Z,27.80
2018-06-11T13:40:58.891Z,30.40
2018-06-11T13:43:27.353Z,30.70
2018-06-11T13:45:55.949Z,30.60
2018-06-11T13:48:24.387Z,31.60
2018-06-11T13:50:52.918Z,31.20
2018-06-11T13:53:21.389Z,31.30
2018-06-11T13:55:49.827Z,32.10
2018-06-11T13:58:18.274Z,33.90
2018-06-11T14:00:46.743Z,34.60
2018-06-11T14:03:15.180Z,35.10
2018-06-11T14:05:43.692Z,34.70
2018-06-11T14:08:12.302Z,35.90
2018-06-11T14:10:40.750Z,37.00
2018-06-11T14:13:09.195Z,37.70
2018-06-11T14:15:37.663Z,38.20
2018-06-11T14:18:06.249Z,39.50
2018-06-11T14:20:34.770Z,39.20
2018-06-11T14:23:03.263Z,37.70
2018-06-11T14:25:31.829Z,39.00
2018-06-11T14:28:00.380Z,39.40
2018-06-11T14:30:28.938Z,38.90
2018-06-11T14:32:57.381Z,38.70
2018-06-11T14:35:25.868Z,39.60
2018-06-11T14:37:54.383Z,40.50
2018-06-11T14:40:22.966Z,39.00
2018-06-11T14:42:51.422Z,40.90
2018-06-11T14:45:20.013Z,39.60
2018-06-11T14:47:48.521Z,40.00
2018-06-11T14:50:16.978Z,40.30
2018-06-11T14:52:45.447Z,39.60
2018-06-11T14:55:13.908Z,41.20
2018-06-11T14:57:42.401Z,43.20
2018-06-11T15:00:10.878Z,40.30
2018-06-11T15:05:07.563Z,42.30
2018-06-11T15:07:36.078Z,42.70
2018-06-11T15:10:04.535Z,43.30
2018-06-11T15:12:33.013Z,43.30
2018-06-11T15:15:01.486Z,43.10
2018-06-11T15:17:29.935Z,42.80
2018-06-11T15:19:58.382Z,44.50
2018-06-11T15:22:26.846Z,44.40
2018-06-11T15:24:55.314Z,44.30
2018-06-11T15:27:23.767Z,45.30
2018-06-11T15:29:52.439Z,43.20
2018-06-11T15:32:20.907Z,42.80
2018-06-11T15:34:49.374Z,45.90
2018-06-11T15:37:17.879Z,42.40
2018-06-11T15:39:46.624Z,43.10
2018-06-11T15:42:15.085Z,43.40
2018-06-11T15:44:43.686Z,43.70
2018-06-11T15:47:12.124Z,44.30
2018-06-11T15:49:40.568Z,44.90
2018-06-11T15:52:09.762Z,43.90
2018-06-11T15:54:38.207Z,45.20
2018-06-11T15:57:06.675Z,44.50
2018-06-11T15:59:35.161Z,45.10
2018-06-11T16:02:03.658Z,44.10
2018-06-11T16:04:32.172Z,45.80
2018-06-11T16:07:00.632Z,45.20
2018-06-11T16:09:29.077Z,45.00
2018-06-11T16:11:57.574Z,46.90
2018-06-11T16:14:26.104Z,48.00
2018-06-11T16:16:54.719Z,48.70
2018-06-11T16:19:23.155Z,47.20
2018-06-11T16:21:51.652Z,48.10
2018-06-11T16:24:20.097Z,49.60
2018-06-11T16:26:48.579Z,49.00
2018-06-11T16:29:17.101Z,48.60
2018-06-11T16:31:45.591Z,49.20
2018-06-11T16:34:14.063Z,50.60
2018-06-11T16:36:42.597Z,49.90
2018-06-11T16:39:11.053Z,50.10
2018-06-11T16:41:39.519Z,49.80
2018-06-11T16:44:08.099Z,51.70
2018-06-11T16:46:36.652Z,50.30
2018-06-11T16:49:05.185Z,52.30
2018-06-11T16:51:33.657Z,54.10
2018-06-11T16:54:02.137Z,57.30
2018-06-11T16:56:30.598Z,55.90
2018-06-11T16:58:59.081Z,58.50
2018-06-11T17:01:27.520Z,59.40
2018-06-11T17:03:56.129Z,61.30
2018-06-11T17:06:24.658Z,64.40
2018-06-11T17:08:53.111Z,62.40
2018-06-11T17:11:21.599Z,65.10
2018-06-11T17:13:50.189Z,66.10
2018-06-11T17:16:20.287Z,65.80
2018-06-11T17:18:48.825Z,67.40
2018-06-11T17:21:17.365Z,69.70
2018-06-11T17:23:46.513Z,73.20
2018-06-11T17:26:14.956Z,73.10
2018-06-11T17:28:43.468Z,77.30
2018-06-11T17:31:11.934Z,79.00
2018-06-11T17:33:40.477Z,73.90
2018-06-11T17:36:08.952Z,79.30
2018-06-11T17:38:37.464Z,74.80
2018-06-11T17:41:07.049Z,75.90
2018-06-11T17:43:35.582Z,73.10
2018-06-11T17:46:04.414Z,74.20
2018-06-11T17:48:32.886Z,71.80
2018-06-11T17:51:01.388Z,72.60
2018-06-11T17:53:29.851Z,70.70
2018-06-11T17:58:26.680Z,70.80
2018-06-11T18:00:55.293Z,71.10
2018-06-11T18:03:23.812Z,67.80
2018-06-11T18:05:52.274Z,68.20
2018-06-11T18:08:20.748Z,71.30
2018-06-11T18:10:49.212Z,68.50
2018-06-11T18:13:17.691Z,69.90
2018-06-11T18:15:46.136Z,68.50
2018-06-11T18:18:14.610Z,69.00
2018-06-11T18:20:43.214Z,67.80
2018-06-11T18:23:11.768Z,68.20
2018-06-11T18:25:40.252Z,70.10
2018-06-11T18:28:08.744Z,69.00
2018-06-11T18:30:37.181Z,70.60
2018-06-11T18:33:05.652Z,68.90
2018-06-11T18:35:34.218Z,70.60
2018-06-11T18:38:02.967Z,72.30
2018-06-11T18:40:31.429Z,70.10
2018-06-11T18:42:59.926Z,72.10
2018-06-11T18:45:28.393Z,71.70
2018-06-11T18:47:56.859Z,71.30
2018-06-11T18:50:25.446Z,70.80
2018-06-11T18:52:53.915Z,71.90
2018-06-11T18:55:22.456Z,70.60
2018-06-11T18:57:50.944Z,72.50
2018-06-11T19:00:19.533Z,72.50
2018-06-11T19:02:48.021Z,69.80
2018-06-11T19:05:16.548Z,70.00
2018-06-11T19:07:45.017Z,70.10
2018-06-11T19:10:13.528Z,70.20
2018-06-11T19:12:42.023Z,68.70
2018-06-11T19:15:10.529Z,69.10
2018-06-11T19:17:38.995Z,69.50
2018-06-11T19:20:07.529Z,69.10
2018-06-11T19:22:35.991Z,67.50
2018-06-11T19:25:04.517Z,68.00
2018-06-11T19:27:33.125Z,67.80
2018-06-11T19:30:01.577Z,67.30
2018-06-11T19:32:30.021Z,67.60
2018-06-11T19:34:58.514Z,67.90
2018-06-11T19:37:27.095Z,67.10
2018-06-11T19:39:55.581Z,67.10
2018-06-11T19:42:24.064Z,68.10
2018-06-11T19:44:52.538Z,69.90
2018-06-11T19:47:20.985Z,68.60
2018-06-11T19:49:49.480Z,70.10
2018-06-11T19:52:18.018Z,68.40
2018-06-11T19:54:46.511Z,68.20
2018-06-11T19:57:15.016Z,67.80
2018-06-11T19:59:43.483Z,67.50
2018-06-11T20:02:11.949Z,67.20
2018-06-11T20:04:40.431Z,67.40
2018-06-11T20:07:08.911Z,69.30
2018-06-11T20:09:37.391Z,67.20
2018-06-11T20:14:34.407Z,68.10
2018-06-11T20:17:02.857Z,68.00
2018-06-11T20:19:31.357Z,68.20
2018-06-11T20:21:59.874Z,69.60
2018-06-11T20:24:29.293Z,67.60
2018-06-11T20:26:57.809Z,69.60
2018-06-11T20:29:26.271Z,68.90
2018-06-11T20:31:55.306Z,68.30
2018-06-11T20:34:23.768Z,69.50
2018-06-11T20:36:52.914Z,69.80
2018-06-11T20:39:21.387Z,67.50
2018-06-11T20:41:49.904Z,69.00
2018-06-11T20:44:18.357Z,68.10
2018-06-11T20:46:46.879Z,68.40
2018-06-11T20:49:15.356Z,68.40
2018-06-11T20:51:43.859Z,67.90
2018-06-11T20:54:12.321Z,69.50
2018-06-11T20:56:40.847Z,69.40
2018-06-11T20:59:09.291Z,69.80
2018-06-11T21:01:37.775Z,68.50
2018-06-11T21:04:06.542Z,69.70
2018-06-11T21:06:35.008Z,67.30
2018-06-11T21:09:04.055Z,69.10
2018-06-11T21:11:32.528Z,67.40
2018-06-11T21:14:01.096Z,69.40
2018-06-11T21:16:29.624Z,69.30
2018-06-11T21:18:58.165Z,70.30
2018-06-11T21:21:26.690Z,69.50
2018-06-11T21:23:55.258Z,71.40
2018-06-11T21:26:23.746Z,71.40
2018-06-11T21:28:52.231Z,71.40
2018-06-11T21:31:20.679Z,70.80
2018-06-11T21:33:49.164Z,71.30
2018-06-11T21:36:17.606Z,70.80
2018-06-11T21:38:46.067Z,71.50
2018-06-11T21:41:14.572Z,71.80
2018-06-11T21:43:43.137Z,72.00
2018-06-11T21:46:11.580Z,71.60
2018-06-11T21:48:40.080Z,73.60
2018-06-11T21:51:08.551Z,73.00
2018-06-11T21:53:37.003Z,73.00
2018-06-11T21:56:05.629Z,72.50
2018-06-11T21:58:34.103Z,71.40
2018-06-11T22:01:02.582Z,71.70
2018-06-11T22:03:31.132Z,71.60
2018-06-11T22:05:59.595Z,70.40
2018-06-11T22:08:28.115Z,71.20
2018-06-11T22:10:56.653Z,71.80
2018-06-11T22:13:25.090Z,71.50
2018-06-11T22:15:53.555Z,71.20
2018-06-11T22:18:22.021Z,71.50
2018-06-11T22:20:50.474Z,70.70
2018-06-11T22:23:18.933Z,71.00
2018-06-11T22:25:47.404Z,71.10
2018-06-11T22:28:15.857Z,70.90
2018-06-11T22:30:44.311Z,71.30
2018-06-11T22:33:12.814Z,72.50
2018-06-11T22:35:41.330Z,71.90
2018-06-11T22:38:09.772Z,72.00
2018-06-11T22:40:38.227Z,71.70
2018-06-11T22:43:06.673Z,72.50
2018-06-11T22:45:35.261Z,71.90
2018-06-11T22:48:03.760Z,71.50
2018-06-11T22:50:32.185Z,72.60
2018-06-11T22:53:00.618Z,73.00
2018-06-11T22:55:29.089Z,73.30
2018-06-11T22:57:57.630Z,73.60
2018-06-11T23:00:33.960Z,72.80
2018-06-11T23:03:02.807Z,72.90
2018-06-11T23:05:31.314Z,73.00
2018-06-11T23:07:59.771Z,73.20
2018-06-11T23:10:28.521Z,74.60
2018-06-11T23:12:56.963Z,73.50
2018-06-11T23:15:25.447Z,74.20
2018-06-11T23:17:53.906Z,73.90
2018-06-11T23:20:22.376Z,74.30
2018-06-11T23:22:50.850Z,74.40
2018-06-11T23:25:19.293Z,75.40
2018-06-11T23:27:47.752Z,76.90
2018-06-11T23:30:16.259Z,77.10
2018-06-11T23:32:44.693Z,76.70
2018-06-11T23:35:13.148Z,77.40
2018-06-11T23:37:41.604Z,77.10
2018-06-11T23:40:10.050Z,77.30
2018-06-11T23:42:38.493Z,78.00
2018-06-11T23:45:06.961Z,78.90
2018-06-11T23:47:35.470Z,78.50
2018-06-11T23:50:07.332Z,78.90
2018-06-11T23:52:35.899Z,80.90
2018-06-11T23:55:04.407Z,80.00
2018-06-11T23:57:32.970Z,80.60
